sensor_id;sensor_type;location;lat;lon;timestamp;P1;durP1;ratioP1;P2;durP2;ratioP2
75295;SDS011;64623;44.738;37.804;2022-12-07T00:02:26;17.13;;;7.35;;
75295;SDS011;64623;44.738;37.804;2022-12-07T00:04:55;14.43;;;6.22;;
75295;SDS011;64623;44.738;37.804;2022-12-07T00:07:24;9.85;;;5.45;;
75295;SDS011;64623;44.738;37.804;2022-12-07T00:09:54;16.75;;;8.40;;
75295;SDS011;64623;44.738;37.804;2022-12-07T00:12:23;13.55;;;8.13;;
75295;SDS011;64623;44.738;37.804;2022-12-07T00:14:52;17.92;;;9.27;;
75295;SDS011;64623;44.738;37.804;2022-12-07T00:17:34;16.20;;;7.47;;
75295;SDS011;64623;44.738;37.804;2022-12-07T00:20:07;22.85;;;10.00;;
75295;SDS011;64623;44.738;37.804;2022-12-07T00:22:49;15.50;;;8.30;;
75295;SDS011;64623;44.738;37.804;2022-12-07T00:25:38;23.08;;;9.10;;
75295;SDS011;64623;44.738;37.804;2022-12-07T00:28:15;11.20;;;5.10;;
75295;SDS011;64623;44.738;37.804;2022-12-07T00:31:18;7.00;;;2.15;;
75295;SDS011;64623;44.738;37.804;2022-12-07T00:33:48;13.30;;;9.02;;
75295;SDS011;64623;44.738;37.804;2022-12-07T00:36:19;14.40;;;9.20;;
75295;SDS011;64623;44.738;37.804;2022-12-07T00:38:57;14.80;;;9.40;;
75295;SDS011;64623;44.738;37.804;2022-12-07T00:41:28;8.52;;;3.75;;
75295;SDS011;64623;44.738;37.804;2022-12-07T00:43:58;10.90;;;7.90;;
75295;SDS011;64623;44.738;37.804;2022-12-07T00:46:27;14.73;;;9.48;;
75295;SDS011;64623;44.738;37.804;2022-12-07T00:48:56;22.92;;;14.70;;
75295;SDS011;64623;44.738;37.804;2022-12-07T00:51:25;20.00;;;12.18;;
75295;SDS011;64623;44.738;37.804;2022-12-07T00:53:54;20.10;;;11.32;;
75295;SDS011;64623;44.738;37.804;2022-12-07T00:56:24;13.95;;;9.85;;
75295;SDS011;64623;44.738;37.804;2022-12-07T00:58:59;14.80;;;9.93;;
75295;SDS011;64623;44.738;37.804;2022-12-07T01:01:30;13.77;;;10.88;;
75295;SDS011;64623;44.738;37.804;2022-12-07T01:04:01;15.65;;;7.88;;
75295;SDS011;64623;44.738;37.804;2022-12-07T01:06:31;14.55;;;9.20;;
75295;SDS011;64623;44.738;37.804;2022-12-07T01:09:01;13.35;;;8.88;;
75295;SDS011;64623;44.738;37.804;2022-12-07T01:11:32;18.85;;;8.75;;
75295;SDS011;64623;44.738;37.804;2022-12-07T01:14:02;23.20;;;11.80;;
75295;SDS011;64623;44.738;37.804;2022-12-07T01:16:32;19.33;;;11.32;;
75295;SDS011;64623;44.738;37.804;2022-12-07T01:19:01;21.58;;;12.45;;
75295;SDS011;64623;44.738;37.804;2022-12-07T01:21:33;29.42;;;19.15;;
75295;SDS011;64623;44.738;37.804;2022-12-07T01:24:06;25.88;;;17.58;;
75295;SDS011;64623;44.738;37.804;2022-12-07T01:26:38;21.95;;;13.38;;
75295;SDS011;64623;44.738;37.804;2022-12-07T01:29:08;19.23;;;11.68;;
75295;SDS011;64623;44.738;37.804;2022-12-07T01:31:37;25.65;;;13.88;;
75295;SDS011;64623;44.738;37.804;2022-12-07T01:34:06;24.35;;;13.68;;
75295;SDS011;64623;44.738;37.804;2022-12-07T01:36:35;16.88;;;9.63;;
75295;SDS011;64623;44.738;37.804;2022-12-07T01:39:06;14.95;;;10.65;;
75295;SDS011;64623;44.738;37.804;2022-12-07T01:41:37;16.08;;;7.30;;
75295;SDS011;64623;44.738;37.804;2022-12-07T01:44:16;12.30;;;7.40;;
75295;SDS011;64623;44.738;37.804;2022-12-07T01:49:42;7.75;;;4.13;;
75295;SDS011;64623;44.738;37.804;2022-12-07T01:54:46;11.70;;;6.50;;
75295;SDS011;64623;44.738;37.804;2022-12-07T01:57:18;11.02;;;6.88;;
75295;SDS011;64623;44.738;37.804;2022-12-07T01:59:48;10.20;;;7.18;;
75295;SDS011;64623;44.738;37.804;2022-12-07T02:02:30;10.25;;;6.70;;
75295;SDS011;64623;44.738;37.804;2022-12-07T02:05:05;9.48;;;4.75;;
75295;SDS011;64623;44.738;37.804;2022-12-07T02:07:36;3.85;;;3.30;;
75295;SDS011;64623;44.738;37.804;2022-12-07T02:18:21;7.68;;;4.88;;
75295;SDS011;64623;44.738;37.804;2022-12-07T02:21:09;5.55;;;3.67;;
75295;SDS011;64623;44.738;37.804;2022-12-07T02:40:19;3.88;;;1.85;;
75295;SDS011;64623;44.738;37.804;2022-12-07T02:42:58;3.60;;;2.20;;
75295;SDS011;64623;44.738;37.804;2022-12-07T02:45:42;3.53;;;1.88;;
75295;SDS011;64623;44.738;37.804;2022-12-07T02:48:15;3.72;;;1.38;;
75295;SDS011;64623;44.738;37.804;2022-12-07T02:50:49;3.33;;;1.42;;
75295;SDS011;64623;44.738;37.804;2022-12-07T02:53:33;2.17;;;0.95;;
75295;SDS011;64623;44.738;37.804;2022-12-07T02:56:17;2.50;;;0.70;;
75295;SDS011;64623;44.738;37.804;2022-12-07T02:59:06;3.97;;;0.75;;
75295;SDS011;64623;44.738;37.804;2022-12-07T03:02:15;1.52;;;0.88;;
75295;SDS011;64623;44.738;37.804;2022-12-07T03:19:13;3.00;;;1.77;;
75295;SDS011;64623;44.738;37.804;2022-12-07T03:24:57;15.40;;;10.63;;
75295;SDS011;64623;44.738;37.804;2022-12-07T03:27:41;14.68;;;9.80;;
75295;SDS011;64623;44.738;37.804;2022-12-07T03:30:24;6.85;;;6.03;;
75295;SDS011;64623;44.738;37.804;2022-12-07T03:33:10;14.75;;;9.48;;
75295;SDS011;64623;44.738;37.804;2022-12-07T03:36:04;12.73;;;9.35;;
75295;SDS011;64623;44.738;37.804;2022-12-07T03:38:45;28.25;;;17.50;;
75295;SDS011;64623;44.738;37.804;2022-12-07T03:43:53;9.18;;;5.90;;
75295;SDS011;64623;44.738;37.804;2022-12-07T03:49:23;12.18;;;8.02;;
75295;SDS011;64623;44.738;37.804;2022-12-07T03:52:12;32.13;;;15.10;;
75295;SDS011;64623;44.738;37.804;2022-12-07T03:54:42;59.45;;;25.98;;
75295;SDS011;64623;44.738;37.804;2022-12-07T03:57:22;36.28;;;17.23;;
75295;SDS011;64623;44.738;37.804;2022-12-07T03:59:54;21.55;;;12.00;;
75295;SDS011;64623;44.738;37.804;2022-12-07T04:02:25;38.85;;;17.83;;
75295;SDS011;64623;44.738;37.804;2022-12-07T04:04:56;59.55;;;27.95;;
75295;SDS011;64623;44.738;37.804;2022-12-07T04:07:25;39.58;;;22.17;;
75295;SDS011;64623;44.738;37.804;2022-12-07T04:09:54;31.42;;;16.27;;
75295;SDS011;64623;44.738;37.804;2022-12-07T04:12:39;13.48;;;8.85;;
75295;SDS011;64623;44.738;37.804;2022-12-07T04:15:08;14.15;;;8.00;;
75295;SDS011;64623;44.738;37.804;2022-12-07T04:17:38;15.18;;;9.70;;
75295;SDS011;64623;44.738;37.804;2022-12-07T04:20:07;15.07;;;7.05;;
75295;SDS011;64623;44.738;37.804;2022-12-07T04:22:36;10.10;;;3.55;;
75295;SDS011;64623;44.738;37.804;2022-12-07T04:25:06;13.95;;;9.90;;
75295;SDS011;64623;44.738;37.804;2022-12-07T04:27:35;17.20;;;11.30;;
75295;SDS011;64623;44.738;37.804;2022-12-07T04:30:04;18.20;;;11.57;;
75295;SDS011;64623;44.738;37.804;2022-12-07T04:32:34;20.35;;;14.52;;
75295;SDS011;64623;44.738;37.804;2022-12-07T04:35:03;19.85;;;14.77;;
75295;SDS011;64623;44.738;37.804;2022-12-07T04:37:33;18.50;;;12.75;;
75295;SDS011;64623;44.738;37.804;2022-12-07T04:40:02;16.42;;;10.43;;
75295;SDS011;64623;44.738;37.804;2022-12-07T04:42:31;8.35;;;5.95;;
75295;SDS011;64623;44.738;37.804;2022-12-07T04:45:17;7.50;;;3.83;;
75295;SDS011;64623;44.738;37.804;2022-12-07T04:48:03;6.53;;;3.70;;
75295;SDS011;64623;44.738;37.804;2022-12-07T04:50:32;5.80;;;4.20;;
75295;SDS011;64623;44.738;37.804;2022-12-07T04:53:01;3.90;;;2.50;;
75295;SDS011;64623;44.738;37.804;2022-12-07T04:55:30;7.15;;;3.90;;
75295;SDS011;64623;44.738;37.804;2022-12-07T04:57:59;7.18;;;3.25;;
75295;SDS011;64623;44.738;37.804;2022-12-07T05:00:28;12.48;;;9.27;;
75295;SDS011;64623;44.738;37.804;2022-12-07T05:02:57;11.40;;;8.73;;
75295;SDS011;64623;44.738;37.804;2022-12-07T05:05:26;8.57;;;5.88;;
75295;SDS011;64623;44.738;37.804;2022-12-07T05:07:56;7.40;;;5.03;;
75295;SDS011;64623;44.738;37.804;2022-12-07T05:10:25;5.25;;;3.22;;
75295;SDS011;64623;44.738;37.804;2022-12-07T05:12:55;8.18;;;5.65;;
75295;SDS011;64623;44.738;37.804;2022-12-07T05:15:24;16.35;;;12.10;;
75295;SDS011;64623;44.738;37.804;2022-12-07T05:17:53;16.92;;;11.23;;
75295;SDS011;64623;44.738;37.804;2022-12-07T05:20:23;19.77;;;13.88;;
75295;SDS011;64623;44.738;37.804;2022-12-07T05:22:52;14.13;;;9.57;;
75295;SDS011;64623;44.738;37.804;2022-12-07T05:25:21;8.02;;;6.00;;
75295;SDS011;64623;44.738;37.804;2022-12-07T05:27:50;11.80;;;8.52;;
75295;SDS011;64623;44.738;37.804;2022-12-07T05:30:19;36.65;;;24.92;;
75295;SDS011;64623;44.738;37.804;2022-12-07T05:35:21;31.65;;;24.77;;
75295;SDS011;64623;44.738;37.804;2022-12-07T05:37:52;36.92;;;24.02;;
75295;SDS011;64623;44.738;37.804;2022-12-07T05:40:22;49.75;;;30.95;;
75295;SDS011;64623;44.738;37.804;2022-12-07T05:42:51;54.90;;;36.65;;
75295;SDS011;64623;44.738;37.804;2022-12-07T05:45:20;50.25;;;32.33;;
75295;SDS011;64623;44.738;37.804;2022-12-07T05:47:50;50.92;;;32.38;;
75295;SDS011;64623;44.738;37.804;2022-12-07T05:50:19;43.95;;;31.77;;
75295;SDS011;64623;44.738;37.804;2022-12-07T05:53:00;40.28;;;28.70;;
75295;SDS011;64623;44.738;37.804;2022-12-07T05:55:31;34.97;;;24.08;;
75295;SDS011;64623;44.738;37.804;2022-12-07T05:58:00;36.05;;;23.77;;
75295;SDS011;64623;44.738;37.804;2022-12-07T06:00:47;22.52;;;15.00;;
75295;SDS011;64623;44.738;37.804;2022-12-07T06:03:18;16.08;;;10.60;;
75295;SDS011;64623;44.738;37.804;2022-12-07T06:05:47;8.15;;;3.25;;
75295;SDS011;64623;44.738;37.804;2022-12-07T06:08:16;2.00;;;1.13;;
75295;SDS011;64623;44.738;37.804;2022-12-07T06:10:47;2.00;;;0.95;;
75295;SDS011;64623;44.738;37.804;2022-12-07T06:13:36;5.15;;;2.97;;
75295;SDS011;64623;44.738;37.804;2022-12-07T06:16:09;17.30;;;14.10;;
75295;SDS011;64623;44.738;37.804;2022-12-07T06:18:38;3.90;;;1.95;;
75295;SDS011;64623;44.738;37.804;2022-12-07T06:21:27;2.78;;;0.60;;
75295;SDS011;64623;44.738;37.804;2022-12-07T06:23:56;1.50;;;0.77;;
75295;SDS011;64623;44.738;37.804;2022-12-07T06:26:25;1.20;;;0.30;;
75295;SDS011;64623;44.738;37.804;2022-12-07T06:28:55;2.45;;;0.65;;
75295;SDS011;64623;44.738;37.804;2022-12-07T06:31:24;4.72;;;1.35;;
75295;SDS011;64623;44.738;37.804;2022-12-07T06:34:01;2.42;;;1.40;;
75295;SDS011;64623;44.738;37.804;2022-12-07T06:36:35;6.32;;;1.00;;
75295;SDS011;64623;44.738;37.804;2022-12-07T06:39:08;4.97;;;1.08;;
75295;SDS011;64623;44.738;37.804;2022-12-07T06:41:38;2.85;;;1.13;;
75295;SDS011;64623;44.738;37.804;2022-12-07T06:44:07;26.02;;;16.25;;
75295;SDS011;64623;44.738;37.804;2022-12-07T06:46:37;25.20;;;18.50;;
75295;SDS011;64623;44.738;37.804;2022-12-07T06:49:06;25.52;;;18.38;;
75295;SDS011;64623;44.738;37.804;2022-12-07T06:51:37;35.25;;;20.50;;
75295;SDS011;64623;44.738;37.804;2022-12-07T06:54:09;32.40;;;21.35;;
75295;SDS011;64623;44.738;37.804;2022-12-07T06:56:40;17.15;;;10.93;;
75295;SDS011;64623;44.738;37.804;2022-12-07T06:59:11;19.30;;;12.15;;
75295;SDS011;64623;44.738;37.804;2022-12-07T07:01:41;16.88;;;12.80;;
75295;SDS011;64623;44.738;37.804;2022-12-07T07:04:11;13.68;;;9.50;;
75295;SDS011;64623;44.738;37.804;2022-12-07T07:06:41;7.28;;;4.47;;
75295;SDS011;64623;44.738;37.804;2022-12-07T07:09:10;3.15;;;1.73;;
75295;SDS011;64623;44.738;37.804;2022-12-07T07:11:40;6.70;;;4.43;;
75295;SDS011;64623;44.738;37.804;2022-12-07T07:14:11;8.02;;;3.15;;
75295;SDS011;64623;44.738;37.804;2022-12-07T07:16:40;13.95;;;10.55;;
75295;SDS011;64623;44.738;37.804;2022-12-07T07:19:10;21.58;;;12.73;;
75295;SDS011;64623;44.738;37.804;2022-12-07T07:21:40;12.65;;;9.10;;
75295;SDS011;64623;44.738;37.804;2022-12-07T07:24:12;16.17;;;11.30;;
75295;SDS011;64623;44.738;37.804;2022-12-07T07:26:44;16.48;;;10.23;;
75295;SDS011;64623;44.738;37.804;2022-12-07T07:29:16;15.45;;;10.00;;
75295;SDS011;64623;44.738;37.804;2022-12-07T07:31:45;13.27;;;9.02;;
75295;SDS011;64623;44.738;37.804;2022-12-07T07:34:15;13.05;;;10.15;;
75295;SDS011;64623;44.738;37.804;2022-12-07T07:36:45;15.98;;;10.57;;
75295;SDS011;64623;44.738;37.804;2022-12-07T07:39:23;16.27;;;11.75;;
75295;SDS011;64623;44.738;37.804;2022-12-07T07:42:24;19.20;;;14.57;;
75295;SDS011;64623;44.738;37.804;2022-12-07T07:44:54;24.52;;;16.00;;
75295;SDS011;64623;44.738;37.804;2022-12-07T07:47:27;11.70;;;8.45;;
75295;SDS011;64623;44.738;37.804;2022-12-07T07:49:58;16.27;;;12.40;;
75295;SDS011;64623;44.738;37.804;2022-12-07T07:52:30;16.25;;;11.60;;
75295;SDS011;64623;44.738;37.804;2022-12-07T07:55:01;14.50;;;9.32;;
75295;SDS011;64623;44.738;37.804;2022-12-07T07:57:32;17.45;;;10.85;;
75295;SDS011;64623;44.738;37.804;2022-12-07T08:00:03;14.10;;;10.50;;
75295;SDS011;64623;44.738;37.804;2022-12-07T08:02:44;13.50;;;8.40;;
75295;SDS011;64623;44.738;37.804;2022-12-07T08:05:14;8.35;;;5.32;;
75295;SDS011;64623;44.738;37.804;2022-12-07T08:07:45;10.27;;;5.15;;
75295;SDS011;64623;44.738;37.804;2022-12-07T08:10:15;10.43;;;6.20;;
75295;SDS011;64623;44.738;37.804;2022-12-07T08:13:03;9.45;;;4.50;;
75295;SDS011;64623;44.738;37.804;2022-12-07T08:15:47;7.75;;;4.72;;
75295;SDS011;64623;44.738;37.804;2022-12-07T08:18:18;6.65;;;4.22;;
75295;SDS011;64623;44.738;37.804;2022-12-07T08:20:48;11.05;;;4.88;;
75295;SDS011;64623;44.738;37.804;2022-12-07T08:23:17;10.10;;;3.45;;
75295;SDS011;64623;44.738;37.804;2022-12-07T08:25:47;7.38;;;3.58;;
75295;SDS011;64623;44.738;37.804;2022-12-07T08:28:16;10.55;;;4.57;;
75295;SDS011;64623;44.738;37.804;2022-12-07T08:30:46;10.35;;;4.53;;
75295;SDS011;64623;44.738;37.804;2022-12-07T08:33:15;8.95;;;4.10;;
75295;SDS011;64623;44.738;37.804;2022-12-07T08:36:06;8.10;;;3.40;;
75295;SDS011;64623;44.738;37.804;2022-12-07T08:38:53;5.25;;;3.13;;
75295;SDS011;64623;44.738;37.804;2022-12-07T08:41:43;7.75;;;4.38;;
75295;SDS011;64623;44.738;37.804;2022-12-07T08:44:14;5.85;;;3.65;;
75295;SDS011;64623;44.738;37.804;2022-12-07T08:46:51;6.40;;;3.45;;
75295;SDS011;64623;44.738;37.804;2022-12-07T08:49:32;7.47;;;4.15;;
75295;SDS011;64623;44.738;37.804;2022-12-07T08:52:10;6.40;;;3.75;;
75295;SDS011;64623;44.738;37.804;2022-12-07T08:54:44;7.50;;;4.80;;
75295;SDS011;64623;44.738;37.804;2022-12-07T08:57:19;6.53;;;4.10;;
75295;SDS011;64623;44.738;37.804;2022-12-07T08:59:52;8.30;;;5.53;;
75295;SDS011;64623;44.738;37.804;2022-12-07T09:02:24;8.93;;;6.68;;
75295;SDS011;64623;44.738;37.804;2022-12-07T09:04:55;10.00;;;6.30;;
75295;SDS011;64623;44.738;37.804;2022-12-07T09:07:26;9.32;;;4.88;;
75295;SDS011;64623;44.738;37.804;2022-12-07T09:09:57;4.50;;;2.60;;
75295;SDS011;64623;44.738;37.804;2022-12-07T09:12:30;4.18;;;3.22;;
75295;SDS011;64623;44.738;37.804;2022-12-07T09:14:59;4.43;;;2.60;;
75295;SDS011;64623;44.738;37.804;2022-12-07T09:17:31;5.38;;;3.83;;
75295;SDS011;64623;44.738;37.804;2022-12-07T09:20:02;6.05;;;3.40;;
75295;SDS011;64623;44.738;37.804;2022-12-07T09:22:34;7.63;;;5.07;;
75295;SDS011;64623;44.738;37.804;2022-12-07T09:25:06;5.68;;;3.47;;
75295;SDS011;64623;44.738;37.804;2022-12-07T09:27:36;4.88;;;1.85;;
75295;SDS011;64623;44.738;37.804;2022-12-07T09:30:05;2.42;;;1.20;;
75295;SDS011;64623;44.738;37.804;2022-12-07T09:32:36;6.32;;;5.00;;
75295;SDS011;64623;44.738;37.804;2022-12-07T09:35:05;4.68;;;2.42;;
75295;SDS011;64623;44.738;37.804;2022-12-07T09:37:35;2.47;;;1.70;;
75295;SDS011;64623;44.738;37.804;2022-12-07T09:40:05;2.97;;;1.05;;
75295;SDS011;64623;44.738;37.804;2022-12-07T09:42:40;6.43;;;2.08;;
75295;SDS011;64623;44.738;37.804;2022-12-07T09:45:25;3.28;;;1.33;;
75295;SDS011;64623;44.738;37.804;2022-12-07T09:48:03;4.28;;;1.95;;
75295;SDS011;64623;44.738;37.804;2022-12-07T09:50:37;2.45;;;1.50;;
75295;SDS011;64623;44.738;37.804;2022-12-07T09:53:45;2.63;;;2.42;;
75295;SDS011;64623;44.738;37.804;2022-12-07T09:56:11;4.05;;;1.65;;
75295;SDS011;64623;44.738;37.804;2022-12-07T09:58:42;1.85;;;1.23;;
75295;SDS011;64623;44.738;37.804;2022-12-07T10:01:14;1.95;;;1.45;;
75295;SDS011;64623;44.738;37.804;2022-12-07T10:06:41;2.67;;;0.93;;
75295;SDS011;64623;44.738;37.804;2022-12-07T10:09:15;3.63;;;1.55;;
75295;SDS011;64623;44.738;37.804;2022-12-07T10:12:06;4.18;;;1.70;;
75295;SDS011;64623;44.738;37.804;2022-12-07T10:14:38;4.50;;;1.60;;
75295;SDS011;64623;44.738;37.804;2022-12-07T10:17:41;1.80;;;0.82;;
75295;SDS011;64623;44.738;37.804;2022-12-07T10:20:19;2.65;;;1.42;;
75295;SDS011;64623;44.738;37.804;2022-12-07T10:25:40;6.22;;;1.50;;
75295;SDS011;64623;44.738;37.804;2022-12-07T10:28:14;3.03;;;1.77;;
75295;SDS011;64623;44.738;37.804;2022-12-07T10:30:57;3.45;;;1.15;;
75295;SDS011;64623;44.738;37.804;2022-12-07T10:33:33;2.05;;;1.33;;
75295;SDS011;64623;44.738;37.804;2022-12-07T10:36:18;2.67;;;1.10;;
75295;SDS011;64623;44.738;37.804;2022-12-07T10:39:12;3.03;;;2.25;;
75295;SDS011;64623;44.738;37.804;2022-12-07T10:42:00;5.60;;;1.92;;
75295;SDS011;64623;44.738;37.804;2022-12-07T10:44:32;1.77;;;1.05;;
75295;SDS011;64623;44.738;37.804;2022-12-07T10:52:27;3.30;;;1.40;;
75295;SDS011;64623;44.738;37.804;2022-12-07T11:07:07;2.00;;;0.90;;
75295;SDS011;64623;44.738;37.804;2022-12-07T11:18:06;2.58;;;1.23;;
75295;SDS011;64623;44.738;37.804;2022-12-07T11:20:50;4.07;;;1.33;;
75295;SDS011;64623;44.738;37.804;2022-12-07T11:23:33;2.80;;;0.77;;
75295;SDS011;64623;44.738;37.804;2022-12-07T11:26:34;1.67;;;0.70;;
75295;SDS011;64623;44.738;37.804;2022-12-07T11:29:21;1.92;;;1.30;;
75295;SDS011;64623;44.738;37.804;2022-12-07T11:37:43;5.35;;;1.35;;
75295;SDS011;64623;44.738;37.804;2022-12-07T11:40:48;2.30;;;1.05;;
75295;SDS011;64623;44.738;37.804;2022-12-07T11:43:27;5.28;;;1.45;;
75295;SDS011;64623;44.738;37.804;2022-12-07T11:46:05;3.00;;;1.27;;
75295;SDS011;64623;44.738;37.804;2022-12-07T11:49:01;4.25;;;0.82;;
75295;SDS011;64623;44.738;37.804;2022-12-07T11:51:51;2.45;;;1.20;;
75295;SDS011;64623;44.738;37.804;2022-12-07T11:54:23;2.90;;;1.35;;
75295;SDS011;64623;44.738;37.804;2022-12-07T11:57:00;4.20;;;1.13;;
75295;SDS011;64623;44.738;37.804;2022-12-07T11:59:36;2.38;;;0.90;;
75295;SDS011;64623;44.738;37.804;2022-12-07T12:02:14;2.15;;;0.93;;
75295;SDS011;64623;44.738;37.804;2022-12-07T12:07:41;6.53;;;0.80;;
75295;SDS011;64623;44.738;37.804;2022-12-07T12:10:49;2.38;;;1.30;;
75295;SDS011;64623;44.738;37.804;2022-12-07T12:20:06;3.55;;;0.80;;
75295;SDS011;64623;44.738;37.804;2022-12-07T12:22:45;2.42;;;0.60;;
75295;SDS011;64623;44.738;37.804;2022-12-07T12:27:58;5.22;;;1.02;;
75295;SDS011;64623;44.738;37.804;2022-12-07T12:30:32;3.70;;;1.33;;
75295;SDS011;64623;44.738;37.804;2022-12-07T12:47:04;3.72;;;2.78;;
75295;SDS011;64623;44.738;37.804;2022-12-07T12:52:57;4.07;;;1.73;;
75295;SDS011;64623;44.738;37.804;2022-12-07T13:00:49;5.22;;;3.42;;
75295;SDS011;64623;44.738;37.804;2022-12-07T13:03:56;2.90;;;1.38;;
75295;SDS011;64623;44.738;37.804;2022-12-07T13:08:56;3.72;;;1.50;;
75295;SDS011;64623;44.738;37.804;2022-12-07T13:11:32;4.82;;;2.05;;
75295;SDS011;64623;44.738;37.804;2022-12-07T13:17:09;4.07;;;1.60;;
75295;SDS011;64623;44.738;37.804;2022-12-07T13:28:02;3.63;;;1.08;;
75295;SDS011;64623;44.738;37.804;2022-12-07T13:31:00;3.67;;;1.77;;
75295;SDS011;64623;44.738;37.804;2022-12-07T13:33:50;4.50;;;1.15;;
75295;SDS011;64623;44.738;37.804;2022-12-07T13:36:23;3.65;;;1.05;;
75295;SDS011;64623;44.738;37.804;2022-12-07T13:38:58;7.13;;;0.73;;
75295;SDS011;64623;44.738;37.804;2022-12-07T13:41:29;2.53;;;0.80;;
75295;SDS011;64623;44.738;37.804;2022-12-07T13:44:00;3.53;;;1.20;;
75295;SDS011;64623;44.738;37.804;2022-12-07T13:46:43;6.18;;;0.95;;
75295;SDS011;64623;44.738;37.804;2022-12-07T13:49:18;3.55;;;1.67;;
75295;SDS011;64623;44.738;37.804;2022-12-07T13:51:52;3.38;;;0.82;;
75295;SDS011;64623;44.738;37.804;2022-12-07T13:54:22;3.40;;;0.75;;
75295;SDS011;64623;44.738;37.804;2022-12-07T13:56:51;3.45;;;1.55;;
75295;SDS011;64623;44.738;37.804;2022-12-07T13:59:22;6.50;;;1.38;;
75295;SDS011;64623;44.738;37.804;2022-12-07T14:01:54;3.47;;;1.50;;
75295;SDS011;64623;44.738;37.804;2022-12-07T14:09:57;8.68;;;1.45;;
75295;SDS011;64623;44.738;37.804;2022-12-07T14:12:29;3.63;;;0.77;;
75295;SDS011;64623;44.738;37.804;2022-12-07T14:17:32;2.78;;;0.90;;
75295;SDS011;64623;44.738;37.804;2022-12-07T14:20:02;3.13;;;0.88;;
75295;SDS011;64623;44.738;37.804;2022-12-07T14:22:34;9.32;;;1.80;;
75295;SDS011;64623;44.738;37.804;2022-12-07T14:27:52;1.70;;;0.77;;
75295;SDS011;64623;44.738;37.804;2022-12-07T14:30:26;1.00;;;0.40;;
75295;SDS011;64623;44.738;37.804;2022-12-07T14:33:00;1.48;;;0.40;;
75295;SDS011;64623;44.738;37.804;2022-12-07T14:35:31;0.98;;;0.65;;
75295;SDS011;64623;44.738;37.804;2022-12-07T14:38:01;1.58;;;0.77;;
75295;SDS011;64623;44.738;37.804;2022-12-07T14:40:31;1.88;;;0.45;;
75295;SDS011;64623;44.738;37.804;2022-12-07T14:43:02;1.33;;;0.50;;
75295;SDS011;64623;44.738;37.804;2022-12-07T14:45:37;2.80;;;1.42;;
75295;SDS011;64623;44.738;37.804;2022-12-07T14:48:12;1.17;;;0.63;;
75295;SDS011;64623;44.738;37.804;2022-12-07T14:51:03;3.40;;;0.63;;
75295;SDS011;64623;44.738;37.804;2022-12-07T14:53:53;2.13;;;0.40;;
75295;SDS011;64623;44.738;37.804;2022-12-07T14:56:24;2.03;;;0.95;;
75295;SDS011;64623;44.738;37.804;2022-12-07T14:58:54;1.02;;;0.85;;
75295;SDS011;64623;44.738;37.804;2022-12-07T15:01:22;1.52;;;0.70;;
75295;SDS011;64623;44.738;37.804;2022-12-07T15:03:52;2.63;;;1.00;;
75295;SDS011;64623;44.738;37.804;2022-12-07T15:06:21;4.10;;;0.70;;
75295;SDS011;64623;44.738;37.804;2022-12-07T15:08:50;2.75;;;0.80;;
75295;SDS011;64623;44.738;37.804;2022-12-07T15:11:19;1.70;;;0.93;;
75295;SDS011;64623;44.738;37.804;2022-12-07T15:13:49;2.28;;;0.50;;
75295;SDS011;64623;44.738;37.804;2022-12-07T15:16:38;2.67;;;0.77;;
75295;SDS011;64623;44.738;37.804;2022-12-07T15:19:29;5.05;;;0.88;;
75295;SDS011;64623;44.738;37.804;2022-12-07T15:21:58;3.30;;;0.43;;
75295;SDS011;64623;44.738;37.804;2022-12-07T15:24:28;2.53;;;0.75;;
75295;SDS011;64623;44.738;37.804;2022-12-07T15:26:57;4.10;;;0.50;;
75295;SDS011;64623;44.738;37.804;2022-12-07T15:29:28;1.55;;;0.50;;
75295;SDS011;64623;44.738;37.804;2022-12-07T15:31:57;1.75;;;0.55;;
75295;SDS011;64623;44.738;37.804;2022-12-07T15:34:27;2.42;;;0.40;;
75295;SDS011;64623;44.738;37.804;2022-12-07T15:37:00;6.28;;;0.85;;
75295;SDS011;64623;44.738;37.804;2022-12-07T15:39:29;2.25;;;1.10;;
75295;SDS011;64623;44.738;37.804;2022-12-07T15:41:59;3.33;;;0.88;;
75295;SDS011;64623;44.738;37.804;2022-12-07T15:44:29;2.58;;;0.60;;
75295;SDS011;64623;44.738;37.804;2022-12-07T15:47:17;2.05;;;0.70;;
75295;SDS011;64623;44.738;37.804;2022-12-07T15:49:46;4.35;;;0.70;;
75295;SDS011;64623;44.738;37.804;2022-12-07T15:52:16;1.65;;;0.50;;
75295;SDS011;64623;44.738;37.804;2022-12-07T15:54:47;6.53;;;0.60;;
75295;SDS011;64623;44.738;37.804;2022-12-07T15:57:17;4.30;;;1.77;;
75295;SDS011;64623;44.738;37.804;2022-12-07T15:59:51;1.90;;;0.57;;
75295;SDS011;64623;44.738;37.804;2022-12-07T16:02:22;0.93;;;0.38;;
75295;SDS011;64623;44.738;37.804;2022-12-07T16:04:54;2.47;;;0.50;;
75295;SDS011;64623;44.738;37.804;2022-12-07T16:09:55;2.67;;;0.20;;
75295;SDS011;64623;44.738;37.804;2022-12-07T16:12:30;2.95;;;0.70;;
75295;SDS011;64623;44.738;37.804;2022-12-07T16:15:04;0.90;;;0.55;;
75295;SDS011;64623;44.738;37.804;2022-12-07T16:17:52;1.00;;;0.38;;
75295;SDS011;64623;44.738;37.804;2022-12-07T16:20:22;1.85;;;0.32;;
75295;SDS011;64623;44.738;37.804;2022-12-07T16:22:52;2.58;;;0.50;;
75295;SDS011;64623;44.738;37.804;2022-12-07T16:25:22;1.02;;;0.30;;
75295;SDS011;64623;44.738;37.804;2022-12-07T16:27:52;1.70;;;0.52;;
75295;SDS011;64623;44.738;37.804;2022-12-07T16:30:22;6.75;;;0.38;;
75295;SDS011;64623;44.738;37.804;2022-12-07T16:32:52;2.47;;;0.75;;
75295;SDS011;64623;44.738;37.804;2022-12-07T16:35:24;1.20;;;0.30;;
75295;SDS011;64623;44.738;37.804;2022-12-07T16:37:53;0.80;;;0.50;;
75295;SDS011;64623;44.738;37.804;2022-12-07T16:40:23;1.55;;;0.60;;
75295;SDS011;64623;44.738;37.804;2022-12-07T16:42:53;2.25;;;0.20;;
75295;SDS011;64623;44.738;37.804;2022-12-07T16:45:23;2.10;;;0.65;;
75295;SDS011;64623;44.738;37.804;2022-12-07T16:47:53;1.02;;;0.32;;
75295;SDS011;64623;44.738;37.804;2022-12-07T16:50:24;1.65;;;0.40;;
75295;SDS011;64623;44.738;37.804;2022-12-07T16:52:56;3.00;;;0.40;;
75295;SDS011;64623;44.738;37.804;2022-12-07T16:55:26;1.05;;;0.55;;
75295;SDS011;64623;44.738;37.804;2022-12-07T16:57:57;1.30;;;0.25;;
75295;SDS011;64623;44.738;37.804;2022-12-07T17:00:29;0.88;;;0.35;;
75295;SDS011;64623;44.738;37.804;2022-12-07T17:03:00;1.15;;;0.22;;
75295;SDS011;64623;44.738;37.804;2022-12-07T17:05:37;2.88;;;0.28;;
75295;SDS011;64623;44.738;37.804;2022-12-07T17:08:22;1.50;;;0.20;;
75295;SDS011;64623;44.738;37.804;2022-12-07T17:10:55;0.88;;;0.80;;
75295;SDS011;64623;44.738;37.804;2022-12-07T17:13:30;1.77;;;0.60;;
75295;SDS011;64623;44.738;37.804;2022-12-07T17:16:19;1.50;;;0.70;;
75295;SDS011;64623;44.738;37.804;2022-12-07T17:18:52;2.25;;;0.10;;
75295;SDS011;64623;44.738;37.804;2022-12-07T17:21:22;1.05;;;0.40;;
75295;SDS011;64623;44.738;37.804;2022-12-07T17:23:53;1.58;;;0.82;;
75295;SDS011;64623;44.738;37.804;2022-12-07T17:26:25;0.82;;;0.30;;
75295;SDS011;64623;44.738;37.804;2022-12-07T17:29:00;1.80;;;0.30;;
75295;SDS011;64623;44.738;37.804;2022-12-07T17:31:31;1.00;;;0.15;;
75295;SDS011;64623;44.738;37.804;2022-12-07T17:34:10;1.48;;;0.45;;
75295;SDS011;64623;44.738;37.804;2022-12-07T17:36:41;1.48;;;0.77;;
75295;SDS011;64623;44.738;37.804;2022-12-07T17:39:17;1.80;;;0.82;;
75295;SDS011;64623;44.738;37.804;2022-12-07T17:41:48;1.65;;;0.55;;
75295;SDS011;64623;44.738;37.804;2022-12-07T17:44:39;0.82;;;0.20;;
75295;SDS011;64623;44.738;37.804;2022-12-07T17:47:12;2.28;;;0.43;;